sensor_id;sensor_type;location;lat;lon;timestamp;P1;durP1;ratioP1;P2;durP2;ratioP2
3503;SDS011;1766;53.490;10.174;2023-11-19T00:01:53;7.27;;;5.17;;
3503;SDS011;1766;53.490;10.174;2023-11-19T00:03:55;8.17;;;5.47;;
3503;SDS011;1766;53.490;10.174;2023-11-19T00:05:57;8.60;;;5.60;;
3503;SDS011;1766;53.490;10.174;2023-11-19T00:07:59;5.23;;;3.97;;
3503;SDS011;1766;53.490;10.174;2023-11-19T00:10:00;7.23;;;5.47;;
3503;SDS011;1766;53.490;10.174;2023-11-19T00:12:10;8.53;;;5.23;;
3503;SDS011;1766;53.490;10.174;2023-11-19T00:14:13;6.70;;;4.57;;
3503;SDS011;1766;53.490;10.174;2023-11-19T00:16:16;8.07;;;4.63;;
3503;SDS011;1766;53.490;10.174;2023-11-19T00:18:18;6.20;;;4.13;;
3503;SDS011;1766;53.490;10.174;2023-11-19T00:20:20;4.83;;;4.23;;
3503;SDS011;1766;53.490;10.174;2023-11-19T00:22:22;5.20;;;4.23;;
3503;SDS011;1766;53.490;10.174;2023-11-19T00:24:26;6.40;;;4.37;;
3503;SDS011;1766;53.490;10.174;2023-11-19T00:26:28;4.20;;;3.80;;
3503;SDS011;1766;53.490;10.174;2023-11-19T00:28:30;4.97;;;3.80;;
3503;SDS011;1766;53.490;10.174;2023-11-19T00:30:32;6.53;;;4.47;;
3503;SDS011;1766;53.490;10.174;2023-11-19T00:32:35;5.80;;;4.27;;
3503;SDS011;1766;53.490;10.174;2023-11-19T00:34:38;5.00;;;3.87;;
3503;SDS011;1766;53.490;10.174;2023-11-19T00:36:39;3.97;;;3.57;;
3503;SDS011;1766;53.490;10.174;2023-11-19T00:38:41;5.87;;;3.60;;
3503;SDS011;1766;53.490;10.174;2023-11-19T00:40:42;3.63;;;2.93;;
3503;SDS011;1766;53.490;10.174;2023-11-19T00:42:44;5.17;;;2.80;;
3503;SDS011;1766;53.490;10.174;2023-11-19T00:44:46;2.50;;;2.30;;
3503;SDS011;1766;53.490;10.174;2023-11-19T00:46:48;3.67;;;2.80;;
3503;SDS011;1766;53.490;10.174;2023-11-19T00:48:51;2.90;;;2.50;;
3503;SDS011;1766;53.490;10.174;2023-11-19T00:50:53;3.67;;;2.63;;
3503;SDS011;1766;53.490;10.174;2023-11-19T00:52:55;2.80;;;2.60;;
3503;SDS011;1766;53.490;10.174;2023-11-19T00:54:56;2.80;;;2.60;;
3503;SDS011;1766;53.490;10.174;2023-11-19T00:56:58;2.70;;;2.50;;
3503;SDS011;1766;53.490;10.174;2023-11-19T00:59:01;2.67;;;2.47;;
3503;SDS011;1766;53.490;10.174;2023-11-19T01:01:02;2.60;;;2.40;;
3503;SDS011;1766;53.490;10.174;2023-11-19T01:03:05;2.40;;;2.20;;
3503;SDS011;1766;53.490;10.174;2023-11-19T01:05:09;3.43;;;2.70;;
3503;SDS011;1766;53.490;10.174;2023-11-19T01:07:10;3.57;;;2.60;;
3503;SDS011;1766;53.490;10.174;2023-11-19T01:09:13;2.77;;;2.50;;
3503;SDS011;1766;53.490;10.174;2023-11-19T01:11:19;2.63;;;2.43;;
3503;SDS011;1766;53.490;10.174;2023-11-19T01:13:22;2.43;;;2.17;;
3503;SDS011;1766;53.490;10.174;2023-11-19T01:15:24;3.80;;;1.90;;
3503;SDS011;1766;53.490;10.174;2023-11-19T01:17:26;3.23;;;2.00;;
3503;SDS011;1766;53.490;10.174;2023-11-19T01:19:28;2.00;;;1.80;;
3503;SDS011;1766;53.490;10.174;2023-11-19T01:21:31;2.80;;;2.20;;
3503;SDS011;1766;53.490;10.174;2023-11-19T01:23:32;2.07;;;1.87;;
3503;SDS011;1766;53.490;10.174;2023-11-19T01:25:34;2.03;;;1.87;;
3503;SDS011;1766;53.490;10.174;2023-11-19T01:27:38;2.17;;;1.90;;
3503;SDS011;1766;53.490;10.174;2023-11-19T01:29:40;2.30;;;2.10;;
3503;SDS011;1766;53.490;10.174;2023-11-19T01:31:44;1.80;;;1.50;;
3503;SDS011;1766;53.490;10.174;2023-11-19T01:33:47;2.20;;;2.00;;
3503;SDS011;1766;53.490;10.174;2023-11-19T01:35:49;1.90;;;1.70;;
3503;SDS011;1766;53.490;10.174;2023-11-19T01:37:53;3.07;;;1.43;;
3503;SDS011;1766;53.490;10.174;2023-11-19T01:39:55;1.50;;;1.40;;
3503;SDS011;1766;53.490;10.174;2023-11-19T01:41:57;2.17;;;1.80;;
3503;SDS011;1766;53.490;10.174;2023-11-19T01:43:59;1.50;;;1.40;;
3503;SDS011;1766;53.490;10.174;2023-11-19T01:46:00;1.40;;;1.30;;
3503;SDS011;1766;53.490;10.174;2023-11-19T01:48:03;1.33;;;1.33;;
3503;SDS011;1766;53.490;10.174;2023-11-19T01:50:06;1.23;;;1.23;;
3503;SDS011;1766;53.490;10.174;2023-11-19T01:52:09;1.13;;;1.13;;
3503;SDS011;1766;53.490;10.174;2023-11-19T01:54:13;1.60;;;1.50;;
3503;SDS011;1766;53.490;10.174;2023-11-19T01:56:15;1.60;;;1.50;;
3503;SDS011;1766;53.490;10.174;2023-11-19T01:58:17;1.37;;;1.30;;
3503;SDS011;1766;53.490;10.174;2023-11-19T02:00:20;1.07;;;1.03;;
3503;SDS011;1766;53.490;10.174;2023-11-19T02:02:22;1.43;;;1.17;;
3503;SDS011;1766;53.490;10.174;2023-11-19T02:04:24;1.27;;;1.27;;
3503;SDS011;1766;53.490;10.174;2023-11-19T02:06:26;1.33;;;1.23;;
3503;SDS011;1766;53.490;10.174;2023-11-19T02:08:29;1.37;;;1.10;;
3503;SDS011;1766;53.490;10.174;2023-11-19T02:10:33;1.20;;;1.10;;
3503;SDS011;1766;53.490;10.174;2023-11-19T02:12:34;1.13;;;1.03;;
3503;SDS011;1766;53.490;10.174;2023-11-19T02:14:36;1.10;;;1.10;;
3503;SDS011;1766;53.490;10.174;2023-11-19T02:16:38;0.77;;;0.77;;
3503;SDS011;1766;53.490;10.174;2023-11-19T02:18:40;1.00;;;1.00;;
3503;SDS011;1766;53.490;10.174;2023-11-19T02:20:43;1.03;;;0.80;;
3503;SDS011;1766;53.490;10.174;2023-11-19T02:22:43;1.43;;;1.10;;
3503;SDS011;1766;53.490;10.174;2023-11-19T02:24:47;0.80;;;0.80;;
3503;SDS011;1766;53.490;10.174;2023-11-19T02:26:56;0.63;;;0.63;;
3503;SDS011;1766;53.490;10.174;2023-11-19T02:29:07;0.80;;;0.80;;
3503;SDS011;1766;53.490;10.174;2023-11-19T02:31:09;1.00;;;1.00;;
3503;SDS011;1766;53.490;10.174;2023-11-19T02:33:11;0.93;;;0.93;;
3503;SDS011;1766;53.490;10.174;2023-11-19T02:35:13;0.80;;;0.80;;
3503;SDS011;1766;53.490;10.174;2023-11-19T02:37:14;0.90;;;0.90;;
3503;SDS011;1766;53.490;10.174;2023-11-19T02:39:15;1.33;;;1.23;;
3503;SDS011;1766;53.490;10.174;2023-11-19T02:41:21;1.83;;;1.30;;
3503;SDS011;1766;53.490;10.174;2023-11-19T02:43:23;1.10;;;1.10;;
3503;SDS011;1766;53.490;10.174;2023-11-19T02:45:26;0.90;;;0.90;;
3503;SDS011;1766;53.490;10.174;2023-11-19T02:47:30;1.03;;;1.03;;
3503;SDS011;1766;53.490;10.174;2023-11-19T02:49:31;1.27;;;1.20;;
3503;SDS011;1766;53.490;10.174;2023-11-19T02:51:33;1.40;;;1.30;;
3503;SDS011;1766;53.490;10.174;2023-11-19T02:53:35;1.20;;;1.20;;
3503;SDS011;1766;53.490;10.174;2023-11-19T02:55:39;1.20;;;1.10;;
3503;SDS011;1766;53.490;10.174;2023-11-19T02:57:48;1.30;;;1.20;;
3503;SDS011;1766;53.490;10.174;2023-11-19T02:59:50;0.80;;;0.80;;
3503;SDS011;1766;53.490;10.174;2023-11-19T03:01:53;1.20;;;1.10;;
3503;SDS011;1766;53.490;10.174;2023-11-19T03:06:56;1.20;;;1.20;;
3503;SDS011;1766;53.490;10.174;2023-11-19T03:08:58;1.20;;;1.20;;
3503;SDS011;1766;53.490;10.174;2023-11-19T03:11:05;1.10;;;1.10;;
3503;SDS011;1766;53.490;10.174;2023-11-19T03:13:08;1.00;;;1.00;;
3503;SDS011;1766;53.490;10.174;2023-11-19T03:15:14;1.40;;;1.30;;
3503;SDS011;1766;53.490;10.174;2023-11-19T03:17:18;1.30;;;1.20;;
3503;SDS011;1766;53.490;10.174;2023-11-19T03:19:19;1.30;;;1.30;;
3503;SDS011;1766;53.490;10.174;2023-11-19T03:21:26;1.13;;;1.13;;
3503;SDS011;1766;53.490;10.174;2023-11-19T03:23:29;1.33;;;1.33;;
3503;SDS011;1766;53.490;10.174;2023-11-19T03:25:31;1.97;;;1.43;;
3503;SDS011;1766;53.490;10.174;2023-11-19T03:27:34;1.47;;;1.37;;
3503;SDS011;1766;53.490;10.174;2023-11-19T03:29:36;1.17;;;1.17;;
3503;SDS011;1766;53.490;10.174;2023-11-19T03:31:41;1.60;;;1.50;;
3503;SDS011;1766;53.490;10.174;2023-11-19T03:33:45;1.17;;;1.13;;
3503;SDS011;1766;53.490;10.174;2023-11-19T03:35:47;1.40;;;1.30;;
3503;SDS011;1766;53.490;10.174;2023-11-19T03:37:49;1.73;;;1.50;;
3503;SDS011;1766;53.490;10.174;2023-11-19T03:39:51;2.97;;;2.03;;
3503;SDS011;1766;53.490;10.174;2023-11-19T03:41:53;1.70;;;1.60;;
3503;SDS011;1766;53.490;10.174;2023-11-19T03:43:55;1.90;;;1.80;;
3503;SDS011;1766;53.490;10.174;2023-11-19T03:45:56;2.13;;;1.93;;
3503;SDS011;1766;53.490;10.174;2023-11-19T03:47:58;2.37;;;2.17;;
3503;SDS011;1766;53.490;10.174;2023-11-19T03:50:01;1.90;;;1.80;;
3503;SDS011;1766;53.490;10.174;2023-11-19T03:52:04;2.40;;;2.00;;
3503;SDS011;1766;53.490;10.174;2023-11-19T03:54:06;2.10;;;1.90;;
3503;SDS011;1766;53.490;10.174;2023-11-19T03:56:08;2.83;;;2.00;;
3503;SDS011;1766;53.490;10.174;2023-11-19T03:58:11;2.20;;;2.10;;
3503;SDS011;1766;53.490;10.174;2023-11-19T04:00:14;2.20;;;2.10;;
3503;SDS011;1766;53.490;10.174;2023-11-19T04:02:16;2.33;;;2.13;;
3503;SDS011;1766;53.490;10.174;2023-11-19T04:04:18;2.37;;;2.07;;
3503;SDS011;1766;53.490;10.174;2023-11-19T04:06:21;2.67;;;2.47;;
3503;SDS011;1766;53.490;10.174;2023-11-19T04:08:23;2.60;;;2.40;;
3503;SDS011;1766;53.490;10.174;2023-11-19T04:10:25;2.60;;;2.40;;
3503;SDS011;1766;53.490;10.174;2023-11-19T04:12:27;2.50;;;2.30;;
3503;SDS011;1766;53.490;10.174;2023-11-19T04:14:29;2.63;;;2.43;;
3503;SDS011;1766;53.490;10.174;2023-11-19T04:16:31;2.67;;;2.47;;
3503;SDS011;1766;53.490;10.174;2023-11-19T04:18:33;2.80;;;2.53;;
3503;SDS011;1766;53.490;10.174;2023-11-19T04:20:34;2.97;;;2.77;;
3503;SDS011;1766;53.490;10.174;2023-11-19T04:22:38;3.07;;;2.80;;
3503;SDS011;1766;53.490;10.174;2023-11-19T04:24:39;3.63;;;2.70;;
3503;SDS011;1766;53.490;10.174;2023-11-19T04:26:44;3.23;;;2.90;;
3503;SDS011;1766;53.490;10.174;2023-11-19T04:28:46;3.00;;;2.80;;
3503;SDS011;1766;53.490;10.174;2023-11-19T04:30:49;3.00;;;2.70;;
3503;SDS011;1766;53.490;10.174;2023-11-19T04:32:50;3.13;;;2.83;;
3503;SDS011;1766;53.490;10.174;2023-11-19T04:34:52;2.83;;;2.60;;
3503;SDS011;1766;53.490;10.174;2023-11-19T04:36:53;3.47;;;2.70;;
3503;SDS011;1766;53.490;10.174;2023-11-19T04:38:57;3.00;;;2.80;;
3503;SDS011;1766;53.490;10.174;2023-11-19T04:40:59;3.53;;;3.13;;
3503;SDS011;1766;53.490;10.174;2023-11-19T04:43:01;3.43;;;3.13;;
3503;SDS011;1766;53.490;10.174;2023-11-19T04:45:02;4.53;;;3.00;;
3503;SDS011;1766;53.490;10.174;2023-11-19T04:47:06;3.40;;;3.10;;
3503;SDS011;1766;53.490;10.174;2023-11-19T04:49:08;4.63;;;2.93;;
3503;SDS011;1766;53.490;10.174;2023-11-19T04:51:11;3.50;;;3.20;;
3503;SDS011;1766;53.490;10.174;2023-11-19T04:53:12;6.20;;;3.67;;
3503;SDS011;1766;53.490;10.174;2023-11-19T04:55:17;3.90;;;3.37;;
3503;SDS011;1766;53.490;10.174;2023-11-19T04:57:19;4.30;;;3.60;;
3503;SDS011;1766;53.490;10.174;2023-11-19T04:59:19;3.97;;;3.57;;
3503;SDS011;1766;53.490;10.174;2023-11-19T05:01:21;5.30;;;3.83;;
3503;SDS011;1766;53.490;10.174;2023-11-19T05:03:23;4.33;;;3.63;;
3503;SDS011;1766;53.490;10.174;2023-11-19T05:05:24;4.60;;;3.97;;
3503;SDS011;1766;53.490;10.174;2023-11-19T05:07:27;3.90;;;3.60;;
3503;SDS011;1766;53.490;10.174;2023-11-19T05:09:28;10.67;;;4.47;;
3503;SDS011;1766;53.490;10.174;2023-11-19T05:11:31;9.83;;;4.57;;
3503;SDS011;1766;53.490;10.174;2023-11-19T05:13:34;6.37;;;4.63;;
3503;SDS011;1766;53.490;10.174;2023-11-19T05:15:36;8.40;;;5.10;;
3503;SDS011;1766;53.490;10.174;2023-11-19T05:17:38;7.73;;;4.83;;
3503;SDS011;1766;53.490;10.174;2023-11-19T05:19:40;9.53;;;5.50;;
3503;SDS011;1766;53.490;10.174;2023-11-19T05:21:42;8.90;;;5.70;;
3503;SDS011;1766;53.490;10.174;2023-11-19T05:23:44;14.63;;;6.50;;
3503;SDS011;1766;53.490;10.174;2023-11-19T05:25:46;11.00;;;5.87;;
3503;SDS011;1766;53.490;10.174;2023-11-19T05:27:50;9.67;;;6.23;;
3503;SDS011;1766;53.490;10.174;2023-11-19T05:29:51;8.53;;;5.63;;
3503;SDS011;1766;53.490;10.174;2023-11-19T05:31:53;9.93;;;6.37;;
3503;SDS011;1766;53.490;10.174;2023-11-19T05:33:55;10.63;;;6.40;;
3503;SDS011;1766;53.490;10.174;2023-11-19T05:35:57;12.20;;;6.67;;
3503;SDS011;1766;53.490;10.174;2023-11-19T05:37:59;13.77;;;7.40;;
3503;SDS011;1766;53.490;10.174;2023-11-19T05:40:02;10.50;;;7.27;;
3503;SDS011;1766;53.490;10.174;2023-11-19T05:42:12;14.53;;;6.53;;
3503;SDS011;1766;53.490;10.174;2023-11-19T05:44:15;11.70;;;7.33;;
3503;SDS011;1766;53.490;10.174;2023-11-19T05:46:18;14.43;;;8.10;;
3503;SDS011;1766;53.490;10.174;2023-11-19T05:48:20;15.53;;;9.00;;
3503;SDS011;1766;53.490;10.174;2023-11-19T05:50:21;19.10;;;8.70;;
3503;SDS011;1766;53.490;10.174;2023-11-19T05:52:23;17.23;;;8.77;;
3503;SDS011;1766;53.490;10.174;2023-11-19T05:54:25;15.57;;;8.77;;
3503;SDS011;1766;53.490;10.174;2023-11-19T05:56:26;15.07;;;9.27;;
3503;SDS011;1766;53.490;10.174;2023-11-19T05:58:32;17.67;;;9.80;;
3503;SDS011;1766;53.490;10.174;2023-11-19T06:00:35;15.87;;;9.27;;
3503;SDS011;1766;53.490;10.174;2023-11-19T06:02:37;23.60;;;10.83;;
3503;SDS011;1766;53.490;10.174;2023-11-19T06:04:40;17.77;;;10.97;;
3503;SDS011;1766;53.490;10.174;2023-11-19T06:06:44;18.43;;;10.27;;
3503;SDS011;1766;53.490;10.174;2023-11-19T06:08:45;23.03;;;10.53;;
3503;SDS011;1766;53.490;10.174;2023-11-19T06:10:47;25.33;;;12.03;;
3503;SDS011;1766;53.490;10.174;2023-11-19T06:12:50;21.40;;;11.93;;
3503;SDS011;1766;53.490;10.174;2023-11-19T06:14:56;26.93;;;11.37;;
3503;SDS011;1766;53.490;10.174;2023-11-19T06:16:59;22.90;;;12.30;;
3503;SDS011;1766;53.490;10.174;2023-11-19T06:19:01;32.70;;;11.57;;
3503;SDS011;1766;53.490;10.174;2023-11-19T06:21:03;30.27;;;12.90;;
3503;SDS011;1766;53.490;10.174;2023-11-19T06:23:05;23.57;;;12.37;;
3503;SDS011;1766;53.490;10.174;2023-11-19T06:25:07;29.70;;;13.07;;
3503;SDS011;1766;53.490;10.174;2023-11-19T06:27:08;28.57;;;13.20;;
3503;SDS011;1766;53.490;10.174;2023-11-19T06:29:10;25.87;;;12.87;;
3503;SDS011;1766;53.490;10.174;2023-11-19T06:31:11;26.77;;;13.03;;
3503;SDS011;1766;53.490;10.174;2023-11-19T06:33:17;30.37;;;12.70;;
3503;SDS011;1766;53.490;10.174;2023-11-19T06:35:19;28.87;;;13.17;;
3503;SDS011;1766;53.490;10.174;2023-11-19T06:37:21;34.53;;;14.67;;
3503;SDS011;1766;53.490;10.174;2023-11-19T06:39:23;28.27;;;13.67;;
3503;SDS011;1766;53.490;10.174;2023-11-19T06:41:24;33.00;;;13.57;;
3503;SDS011;1766;53.490;10.174;2023-11-19T06:43:26;34.20;;;13.77;;
3503;SDS011;1766;53.490;10.174;2023-11-19T06:45:28;36.00;;;13.73;;
3503;SDS011;1766;53.490;10.174;2023-11-19T06:47:30;34.43;;;14.07;;
3503;SDS011;1766;53.490;10.174;2023-11-19T06:49:33;36.90;;;13.83;;
3503;SDS011;1766;53.490;10.174;2023-11-19T06:51:35;39.03;;;13.47;;
3503;SDS011;1766;53.490;10.174;2023-11-19T06:53:42;41.80;;;12.97;;
3503;SDS011;1766;53.490;10.174;2023-11-19T06:55:45;29.23;;;12.70;;
3503;SDS011;1766;53.490;10.174;2023-11-19T06:57:47;38.47;;;13.30;;
3503;SDS011;1766;53.490;10.174;2023-11-19T06:59:49;31.83;;;13.47;;
3503;SDS011;1766;53.490;10.174;2023-11-19T07:01:50;46.33;;;13.67;;
3503;SDS011;1766;53.490;10.174;2023-11-19T07:03:52;41.73;;;13.53;;
3503;SDS011;1766;53.490;10.174;2023-11-19T07:05:55;39.67;;;12.10;;
3503;SDS011;1766;53.490;10.174;2023-11-19T07:07:57;44.47;;;11.67;;
3503;SDS011;1766;53.490;10.174;2023-11-19T07:09:59;34.97;;;11.50;;
3503;SDS011;1766;53.490;10.174;2023-11-19T07:12:02;45.67;;;17.13;;
3503;SDS011;1766;53.490;10.174;2023-11-19T07:14:04;54.70;;;20.00;;
3503;SDS011;1766;53.490;10.174;2023-11-19T07:16:07;37.23;;;11.03;;
3503;SDS011;1766;53.490;10.174;2023-11-19T07:18:10;38.07;;;9.80;;
3503;SDS011;1766;53.490;10.174;2023-11-19T07:20:12;40.57;;;10.27;;
3503;SDS011;1766;53.490;10.174;2023-11-19T07:22:16;43.30;;;10.13;;
3503;SDS011;1766;53.490;10.174;2023-11-19T07:24:18;35.80;;;9.10;;
3503;SDS011;1766;53.490;10.174;2023-11-19T07:26:20;32.93;;;9.43;;
3503;SDS011;1766;53.490;10.174;2023-11-19T07:28:22;26.40;;;8.13;;
3503;SDS011;1766;53.490;10.174;2023-11-19T07:30:25;27.10;;;8.33;;
3503;SDS011;1766;53.490;10.174;2023-11-19T07:32:26;29.73;;;7.47;;
3503;SDS011;1766;53.490;10.174;2023-11-19T07:34:28;31.43;;;7.73;;
3503;SDS011;1766;53.490;10.174;2023-11-19T07:36:30;29.83;;;7.87;;
3503;SDS011;1766;53.490;10.174;2023-11-19T07:38:33;28.83;;;7.03;;
3503;SDS011;1766;53.490;10.174;2023-11-19T07:40:35;54.00;;;21.03;;
3503;SDS011;1766;53.490;10.174;2023-11-19T07:42:37;51.40;;;25.53;;
3503;SDS011;1766;53.490;10.174;2023-11-19T07:44:39;38.73;;;9.73;;
3503;SDS011;1766;53.490;10.174;2023-11-19T07:46:40;30.23;;;7.37;;
3503;SDS011;1766;53.490;10.174;2023-11-19T07:48:42;21.07;;;6.40;;
3503;SDS011;1766;53.490;10.174;2023-11-19T07:50:44;28.33;;;6.60;;
3503;SDS011;1766;53.490;10.174;2023-11-19T07:52:46;25.33;;;6.37;;
3503;SDS011;1766;53.490;10.174;2023-11-19T07:54:49;29.97;;;6.37;;
3503;SDS011;1766;53.490;10.174;2023-11-19T07:56:51;26.40;;;6.33;;
3503;SDS011;1766;53.490;10.174;2023-11-19T07:58:53;28.17;;;6.00;;
3503;SDS011;1766;53.490;10.174;2023-11-19T08:00:55;28.07;;;6.23;;
3503;SDS011;1766;53.490;10.174;2023-11-19T08:02:55;24.80;;;6.23;;
3503;SDS011;1766;53.490;10.174;2023-11-19T08:04:57;30.97;;;5.80;;
3503;SDS011;1766;53.490;10.174;2023-11-19T08:06:59;28.10;;;6.30;;
3503;SDS011;1766;53.490;10.174;2023-11-19T08:09:01;38.40;;;6.00;;
3503;SDS011;1766;53.490;10.174;2023-11-19T08:11:05;26.27;;;6.27;;
3503;SDS011;1766;53.490;10.174;2023-11-19T08:13:07;28.90;;;5.13;;
3503;SDS011;1766;53.490;10.174;2023-11-19T08:15:09;30.27;;;6.00;;
3503;SDS011;1766;53.490;10.174;2023-11-19T08:17:11;24.97;;;5.10;;
3503;SDS011;1766;53.490;10.174;2023-11-19T08:19:13;26.27;;;5.33;;
3503;SDS011;1766;53.490;10.174;2023-11-19T08:21:15;25.33;;;5.17;;
3503;SDS011;1766;53.490;10.174;2023-11-19T08:23:17;27.53;;;4.90;;
3503;SDS011;1766;53.490;10.174;2023-11-19T08:25:18;34.77;;;5.50;;
3503;SDS011;1766;53.490;10.174;2023-11-19T08:27:21;43.43;;;12.73;;
3503;SDS011;1766;53.490;10.174;2023-11-19T08:29:26;30.47;;;5.93;;
3503;SDS011;1766;53.490;10.174;2023-11-19T08:31:29;32.13;;;7.23;;
3503;SDS011;1766;53.490;10.174;2023-11-19T08:33:31;31.37;;;5.50;;
3503;SDS011;1766;53.490;10.174;2023-11-19T08:35:33;26.87;;;4.43;;
3503;SDS011;1766;53.490;10.174;2023-11-19T08:37:35;27.07;;;4.97;;
3503;SDS011;1766;53.490;10.174;2023-11-19T08:39:37;24.07;;;4.67;;
3503;SDS011;1766;53.490;10.174;2023-11-19T08:41:39;26.37;;;4.53;;
3503;SDS011;1766;53.490;10.174;2023-11-19T08:43:43;33.80;;;5.70;;
3503;SDS011;1766;53.490;10.174;2023-11-19T08:45:45;31.83;;;5.20;;
3503;SDS011;1766;53.490;10.174;2023-11-19T08:47:47;29.97;;;4.27;;
3503;SDS011;1766;53.490;10.174;2023-11-19T08:49:48;28.30;;;4.97;;
3503;SDS011;1766;53.490;10.174;2023-11-19T08:51:52;24.60;;;4.60;;
3503;SDS011;1766;53.490;10.174;2023-11-19T08:53:54;27.53;;;5.70;;
3503;SDS011;1766;53.490;10.174;2023-11-19T08:55:55;29.80;;;5.10;;
3503;SDS011;1766;53.490;10.174;2023-11-19T08:57:57;32.93;;;5.17;;
3503;SDS011;1766;53.490;10.174;2023-11-19T09:00:00;34.60;;;4.37;;
3503;SDS011;1766;53.490;10.174;2023-11-19T09:02:07;24.97;;;4.27;;
3503;SDS011;1766;53.490;10.174;2023-11-19T09:04:09;33.87;;;5.00;;
3503;SDS011;1766;53.490;10.174;2023-11-19T09:06:11;32.90;;;4.97;;
3503;SDS011;1766;53.490;10.174;2023-11-19T09:08:13;26.47;;;4.80;;
3503;SDS011;1766;53.490;10.174;2023-11-19T09:10:14;107.90;;;50.70;;
3503;SDS011;1766;53.490;10.174;2023-11-19T09:12:17;28.93;;;6.13;;
3503;SDS011;1766;53.490;10.174;2023-11-19T09:14:18;25.77;;;5.13;;
3503;SDS011;1766;53.490;10.174;2023-11-19T09:16:25;23.73;;;4.60;;
3503;SDS011;1766;53.490;10.174;2023-11-19T09:18:26;28.87;;;4.33;;
3503;SDS011;1766;53.490;10.174;2023-11-19T09:20:28;31.40;;;4.83;;
3503;SDS011;1766;53.490;10.174;2023-11-19T09:22:37;33.10;;;5.00;;
3503;SDS011;1766;53.490;10.174;2023-11-19T09:24:39;30.97;;;4.97;;
3503;SDS011;1766;53.490;10.174;2023-11-19T09:26:40;28.43;;;4.70;;
3503;SDS011;1766;53.490;10.174;2023-11-19T09:28:42;33.53;;;5.40;;
3503;SDS011;1766;53.490;10.174;2023-11-19T09:30:44;25.23;;;4.23;;
3503;SDS011;1766;53.490;10.174;2023-11-19T09:32:47;33.07;;;5.50;;
3503;SDS011;1766;53.490;10.174;2023-11-19T09:34:49;25.80;;;4.83;;
3503;SDS011;1766;53.490;10.174;2023-11-19T09:36:51;32.03;;;5.43;;
3503;SDS011;1766;53.490;10.174;2023-11-19T09:38:53;34.17;;;5.07;;
3503;SDS011;1766;53.490;10.174;2023-11-19T09:40:55;19.83;;;4.03;;
3503;SDS011;1766;53.490;10.174;2023-11-19T09:42:59;29.47;;;4.30;;
3503;SDS011;1766;53.490;10.174;2023-11-19T09:45:01;26.07;;;4.43;;
3503;SDS011;1766;53.490;10.174;2023-11-19T09:47:08;31.27;;;5.37;;
3503;SDS011;1766;53.490;10.174;2023-11-19T09:49:13;35.83;;;5.07;;
3503;SDS011;1766;53.490;10.174;2023-11-19T09:51:19;35.50;;;5.63;;
3503;SDS011;1766;53.490;10.174;2023-11-19T09:53:21;31.17;;;4.53;;
3503;SDS011;1766;53.490;10.174;2023-11-19T09:55:23;31.17;;;5.30;;
3503;SDS011;1766;53.490;10.174;2023-11-19T09:57:25;26.53;;;4.57;;
3503;SDS011;1766;53.490;10.174;2023-11-19T09:59:28;25.87;;;3.97;;
3503;SDS011;1766;53.490;10.174;2023-11-19T10:01:30;31.40;;;4.53;;
3503;SDS011;1766;53.490;10.174;2023-11-19T10:03:33;26.47;;;4.50;;
3503;SDS011;1766;53.490;10.174;2023-11-19T10:05:36;24.50;;;3.63;;
3503;SDS011;1766;53.490;10.174;2023-11-19T10:07:39;30.17;;;5.33;;
3503;SDS011;1766;53.490;10.174;2023-11-19T10:09:41;26.03;;;4.50;;
3503;SDS011;1766;53.490;10.174;2023-11-19T10:11:43;52.60;;;15.57;;
3503;SDS011;1766;53.490;10.174;2023-11-19T10:13:45;24.43;;;6.37;;
3503;SDS011;1766;53.490;10.174;2023-11-19T10:15:47;36.13;;;6.00;;
3503;SDS011;1766;53.490;10.174;2023-11-19T10:17:50;29.50;;;4.53;;
3503;SDS011;1766;53.490;10.174;2023-11-19T10:19:52;28.73;;;5.00;;
3503;SDS011;1766;53.490;10.174;2023-11-19T10:21:55;26.63;;;4.60;;
3503;SDS011;1766;53.490;10.174;2023-11-19T10:23:57;30.67;;;5.20;;
3503;SDS011;1766;53.490;10.174;2023-11-19T10:26:02;29.87;;;5.63;;
3503;SDS011;1766;53.490;10.174;2023-11-19T10:28:06;33.83;;;4.83;;
3503;SDS011;1766;53.490;10.174;2023-11-19T10:30:08;26.33;;;5.23;;
3503;SDS011;1766;53.490;10.174;2023-11-19T10:32:12;31.03;;;5.13;;
3503;SDS011;1766;53.490;10.174;2023-11-19T10:34:23;36.80;;;5.30;;
3503;SDS011;1766;53.490;10.174;2023-11-19T10:36:37;32.07;;;5.50;;
3503;SDS011;1766;53.490;10.174;2023-11-19T10:38:51;28.93;;;4.80;;
3503;SDS011;1766;53.490;10.174;2023-11-19T10:40:54;28.53;;;5.30;;
3503;SDS011;1766;53.490;10.174;2023-11-19T10:43:01;25.70;;;4.30;;
3503;SDS011;1766;53.490;10.174;2023-11-19T10:45:04;26.13;;;4.63;;
3503;SDS011;1766;53.490;10.174;2023-11-19T10:47:23;28.07;;;4.33;;
3503;SDS011;1766;53.490;10.174;2023-11-19T10:49:25;27.40;;;4.67;;
3503;SDS011;1766;53.490;10.174;2023-11-19T10:51:27;35.57;;;5.07;;
3503;SDS011;1766;53.490;10.174;2023-11-19T10:53:30;29.10;;;4.90;;
3503;SDS011;1766;53.490;10.174;2023-11-19T10:55:37;28.70;;;4.73;;
3503;SDS011;1766;53.490;10.174;2023-11-19T10:57:39;29.70;;;4.57;;
3503;SDS011;1766;53.490;10.174;2023-11-19T10:59:47;26.10;;;4.80;;
3503;SDS011;1766;53.490;10.174;2023-11-19T11:01:52;24.37;;;4.37;;
3503;SDS011;1766;53.490;10.174;2023-11-19T11:03:56;30.30;;;4.70;;
3503;SDS011;1766;53.490;10.174;2023-11-19T11:06:01;31.47;;;4.73;;
3503;SDS011;1766;53.490;10.174;2023-11-19T11:08:06;27.97;;;4.83;;
3503;SDS011;1766;53.490;10.174;2023-11-19T11:10:09;109.60;;;44.80;;
3503;SDS011;1766;53.490;10.174;2023-11-19T11:12:14;46.73;;;15.93;;
3503;SDS011;1766;53.490;10.174;2023-11-19T11:14:19;30.93;;;5.43;;
3503;SDS011;1766;53.490;10.174;2023-11-19T11:16:22;30.90;;;6.10;;
3503;SDS011;1766;53.490;10.174;2023-11-19T11:18:26;27.93;;;5.00;;
3503;SDS011;1766;53.490;10.174;2023-11-19T11:20:29;26.73;;;4.33;;
3503;SDS011;1766;53.490;10.174;2023-11-19T11:22:36;31.30;;;4.70;;
3503;SDS011;1766;53.490;10.174;2023-11-19T11:25:02;31.50;;;5.23;;
3503;SDS011;1766;53.490;10.174;2023-11-19T11:27:26;28.47;;;4.20;;
3503;SDS011;1766;53.490;10.174;2023-11-19T11:29:46;27.47;;;4.80;;
3503;SDS011;1766;53.490;10.174;2023-11-19T11:32:01;33.03;;;5.33;;
3503;SDS011;1766;53.490;10.174;2023-11-19T11:34:31;24.83;;;3.80;;
3503;SDS011;1766;53.490;10.174;2023-11-19T11:36:53;27.87;;;4.87;;
3503;SDS011;1766;53.490;10.174;2023-11-19T11:39:03;30.23;;;4.13;;
3503;SDS011;1766;53.490;10.174;2023-11-19T11:41:15;26.23;;;4.40;;
3503;SDS011;1766;53.490;10.174;2023-11-19T11:45:55;34.90;;;4.90;;
3503;SDS011;1766;53.490;10.174;2023-11-19T11:50:18;23.40;;;4.57;;
3503;SDS011;1766;53.490;10.174;2023-11-19T11:52:20;21.20;;;4.17;;
3503;SDS011;1766;53.490;10.174;2023-11-19T11:54:25;32.50;;;4.43;;
3503;SDS011;1766;53.490;10.174;2023-11-19T11:56:32;28.43;;;4.67;;
3503;SDS011;1766;53.490;10.174;2023-11-19T11:58:35;34.60;;;4.93;;
3503;SDS011;1766;53.490;10.174;2023-11-19T12:00:40;29.67;;;4.60;;
3503;SDS011;1766;53.490;10.174;2023-11-19T12:02:41;33.27;;;4.87;;
3503;SDS011;1766;53.490;10.174;2023-11-19T12:04:47;55.13;;;18.40;;
3503;SDS011;1766;53.490;10.174;2023-11-19T12:07:02;32.70;;;7.40;;
3503;SDS011;1766;53.490;10.174;2023-11-19T12:09:05;26.40;;;5.67;;
3503;SDS011;1766;53.490;10.174;2023-11-19T12:11:08;30.37;;;4.73;;
3503;SDS011;1766;53.490;10.174;2023-11-19T12:13:10;26.13;;;5.00;;
3503;SDS011;1766;53.490;10.174;2023-11-19T12:15:12;30.23;;;4.93;;
3503;SDS011;1766;53.490;10.174;2023-11-19T12:19:45;32.70;;;5.63;;
3503;SDS011;1766;53.490;10.174;2023-11-19T12:21:47;32.30;;;4.77;;
3503;SDS011;1766;53.490;10.174;2023-11-19T12:23:49;27.00;;;4.37;;
3503;SDS011;1766;53.490;10.174;2023-11-19T12:25:50;53.47;;;16.53;;
3503;SDS011;1766;53.490;10.174;2023-11-19T12:27:52;29.33;;;4.93;;
3503;SDS011;1766;53.490;10.174;2023-11-19T12:29:55;27.97;;;4.73;;
3503;SDS011;1766;53.490;10.174;2023-11-19T12:31:57;27.47;;;6.90;;
3503;SDS011;1766;53.490;10.174;2023-11-19T12:34:11;26.40;;;4.07;;
3503;SDS011;1766;53.490;10.174;2023-11-19T12:36:13;25.17;;;3.70;;
3503;SDS011;1766;53.490;10.174;2023-11-19T12:38:18;30.30;;;4.67;;